sensor_id;sensor_type;location;lat;lon;timestamp;P1;durP1;ratioP1;P2;durP2;ratioP2
72801;SDS011;61891;55.818;37.084;2022-08-04T00:05:09;12.05;;;9.18;;
72801;SDS011;61891;55.818;37.084;2022-08-04T00:10:26;13.18;;;9.15;;
72801;SDS011;61891;55.818;37.084;2022-08-04T00:12:54;13.40;;;10.23;;
72801;SDS011;61891;55.818;37.084;2022-08-04T00:15:23;11.43;;;9.68;;
72801;SDS011;61891;55.818;37.084;2022-08-04T00:17:53;14.05;;;10.32;;
72801;SDS011;61891;55.818;37.084;2022-08-04T00:20:20;12.57;;;9.82;;
72801;SDS011;61891;55.818;37.084;2022-08-04T00:22:48;10.98;;;9.60;;
72801;SDS011;61891;55.818;37.084;2022-08-04T00:25:16;12.75;;;9.52;;
72801;SDS011;61891;55.818;37.084;2022-08-04T00:27:43;13.48;;;9.68;;
72801;SDS011;61891;55.818;37.084;2022-08-04T00:30:11;14.73;;;9.40;;
72801;SDS011;61891;55.818;37.084;2022-08-04T00:35:04;12.05;;;8.95;;
72801;SDS011;61891;55.818;37.084;2022-08-04T00:37:33;12.88;;;9.43;;
72801;SDS011;61891;55.818;37.084;2022-08-04T00:40:04;12.60;;;9.45;;
72801;SDS011;61891;55.818;37.084;2022-08-04T00:43:02;12.40;;;8.93;;
72801;SDS011;61891;55.818;37.084;2022-08-04T00:45:40;11.07;;;9.07;;
72801;SDS011;61891;55.818;37.084;2022-08-04T00:48:23;13.30;;;9.55;;
72801;SDS011;61891;55.818;37.084;2022-08-04T01:13:06;12.25;;;7.90;;
72801;SDS011;61891;55.818;37.084;2022-08-04T01:21:37;9.55;;;7.72;;
72801;SDS011;61891;55.818;37.084;2022-08-04T01:27:26;10.95;;;8.13;;
72801;SDS011;61891;55.818;37.084;2022-08-04T01:30:15;11.15;;;8.02;;
72801;SDS011;61891;55.818;37.084;2022-08-04T01:32:51;11.65;;;7.78;;
72801;SDS011;61891;55.818;37.084;2022-08-04T01:35:23;11.90;;;7.68;;
72801;SDS011;61891;55.818;37.084;2022-08-04T01:38:15;12.88;;;8.20;;
72801;SDS011;61891;55.818;37.084;2022-08-04T01:40:44;12.93;;;8.13;;
72801;SDS011;61891;55.818;37.084;2022-08-04T01:43:12;10.35;;;7.88;;
72801;SDS011;61891;55.818;37.084;2022-08-04T01:45:39;10.02;;;7.88;;
72801;SDS011;61891;55.818;37.084;2022-08-04T01:48:05;11.75;;;7.72;;
72801;SDS011;61891;55.818;37.084;2022-08-04T01:50:34;11.60;;;7.75;;
72801;SDS011;61891;55.818;37.084;2022-08-04T01:53:00;10.48;;;8.18;;
72801;SDS011;61891;55.818;37.084;2022-08-04T01:55:28;10.73;;;8.13;;
72801;SDS011;61891;55.818;37.084;2022-08-04T01:57:55;10.68;;;7.82;;
72801;SDS011;61891;55.818;37.084;2022-08-04T02:00:24;9.48;;;8.02;;
72801;SDS011;61891;55.818;37.084;2022-08-04T02:02:52;9.82;;;7.72;;
72801;SDS011;61891;55.818;37.084;2022-08-04T02:05:21;9.80;;;8.25;;
72801;SDS011;61891;55.818;37.084;2022-08-04T02:08:01;9.90;;;7.43;;
72801;SDS011;61891;55.818;37.084;2022-08-04T02:18:22;8.88;;;6.88;;
72801;SDS011;61891;55.818;37.084;2022-08-04T02:20:52;10.70;;;8.15;;
72801;SDS011;61891;55.818;37.084;2022-08-04T02:23:40;11.05;;;7.35;;
72801;SDS011;61891;55.818;37.084;2022-08-04T02:26:16;9.57;;;7.13;;
72801;SDS011;61891;55.818;37.084;2022-08-04T02:28:47;9.40;;;7.60;;
72801;SDS011;61891;55.818;37.084;2022-08-04T02:34:05;10.05;;;7.93;;
72801;SDS011;61891;55.818;37.084;2022-08-04T02:36:37;9.60;;;7.88;;
72801;SDS011;61891;55.818;37.084;2022-08-04T02:39:09;11.18;;;7.78;;
72801;SDS011;61891;55.818;37.084;2022-08-04T02:41:36;10.75;;;7.65;;
72801;SDS011;61891;55.818;37.084;2022-08-04T02:44:05;8.95;;;7.55;;
72801;SDS011;61891;55.818;37.084;2022-08-04T02:46:35;12.00;;;7.38;;
72801;SDS011;61891;55.818;37.084;2022-08-04T02:49:03;11.10;;;8.15;;
72801;SDS011;61891;55.818;37.084;2022-08-04T02:51:34;11.23;;;7.38;;
72801;SDS011;61891;55.818;37.084;2022-08-04T02:54:02;8.65;;;7.28;;
72801;SDS011;61891;55.818;37.084;2022-08-04T02:56:30;9.95;;;8.05;;
72801;SDS011;61891;55.818;37.084;2022-08-04T02:58:58;11.13;;;8.90;;
72801;SDS011;61891;55.818;37.084;2022-08-04T03:01:26;10.82;;;8.23;;
72801;SDS011;61891;55.818;37.084;2022-08-04T03:09:30;11.82;;;8.13;;
72801;SDS011;61891;55.818;37.084;2022-08-04T03:12:31;12.60;;;7.90;;
72801;SDS011;61891;55.818;37.084;2022-08-04T03:15:46;12.40;;;8.05;;
72801;SDS011;61891;55.818;37.084;2022-08-04T03:41:03;13.45;;;8.80;;
72801;SDS011;61891;55.818;37.084;2022-08-04T03:46:14;12.40;;;8.30;;
72801;SDS011;61891;55.818;37.084;2022-08-04T03:54:29;16.90;;;9.15;;
72801;SDS011;61891;55.818;37.084;2022-08-04T04:02:48;15.10;;;9.30;;
72801;SDS011;61891;55.818;37.084;2022-08-04T04:22:29;84.50;;;61.60;;
72801;SDS011;61891;55.818;37.084;2022-08-04T04:30:07;20.73;;;15.77;;
72801;SDS011;61891;55.818;37.084;2022-08-04T04:35:45;17.50;;;13.77;;
72801;SDS011;61891;55.818;37.084;2022-08-04T04:41:20;18.15;;;11.45;;
72801;SDS011;61891;55.818;37.084;2022-08-04T04:49:35;13.82;;;10.75;;
72801;SDS011;61891;55.818;37.084;2022-08-04T04:52:17;14.73;;;11.40;;
72801;SDS011;61891;55.818;37.084;2022-08-04T04:57:28;12.60;;;7.38;;
72801;SDS011;61891;55.818;37.084;2022-08-04T05:00:00;15.60;;;7.80;;
72801;SDS011;61891;55.818;37.084;2022-08-04T05:10:58;9.40;;;7.53;;
72801;SDS011;61891;55.818;37.084;2022-08-04T05:18:53;8.43;;;5.97;;
72801;SDS011;61891;55.818;37.084;2022-08-04T05:24:09;6.28;;;5.10;;
72801;SDS011;61891;55.818;37.084;2022-08-04T05:26:43;7.35;;;5.10;;
72801;SDS011;61891;55.818;37.084;2022-08-04T05:29:34;5.72;;;4.50;;
72801;SDS011;61891;55.818;37.084;2022-08-04T05:32:00;5.72;;;4.78;;
72801;SDS011;61891;55.818;37.084;2022-08-04T05:34:32;6.63;;;5.07;;
72801;SDS011;61891;55.818;37.084;2022-08-04T05:37:16;8.23;;;5.15;;
72801;SDS011;61891;55.818;37.084;2022-08-04T05:39:55;6.13;;;5.03;;
72801;SDS011;61891;55.818;37.084;2022-08-04T05:42:24;10.35;;;5.60;;
72801;SDS011;61891;55.818;37.084;2022-08-04T05:44:50;7.75;;;4.93;;
72801;SDS011;61891;55.818;37.084;2022-08-04T05:47:16;5.63;;;4.95;;
72801;SDS011;61891;55.818;37.084;2022-08-04T05:49:45;7.43;;;5.00;;
72801;SDS011;61891;55.818;37.084;2022-08-04T05:52:11;9.77;;;5.40;;
72801;SDS011;61891;55.818;37.084;2022-08-04T05:54:42;8.45;;;5.10;;
72801;SDS011;61891;55.818;37.084;2022-08-04T05:57:10;7.40;;;5.68;;
72801;SDS011;61891;55.818;37.084;2022-08-04T05:59:37;5.45;;;4.40;;
72801;SDS011;61891;55.818;37.084;2022-08-04T06:02:06;6.97;;;4.93;;
72801;SDS011;61891;55.818;37.084;2022-08-04T06:04:34;7.75;;;4.63;;
72801;SDS011;61891;55.818;37.084;2022-08-04T06:07:03;5.22;;;4.57;;
72801;SDS011;61891;55.818;37.084;2022-08-04T06:09:30;6.63;;;4.93;;
72801;SDS011;61891;55.818;37.084;2022-08-04T06:11:58;6.13;;;4.30;;
72801;SDS011;61891;55.818;37.084;2022-08-04T06:14:27;5.53;;;4.60;;
72801;SDS011;61891;55.818;37.084;2022-08-04T06:16:57;6.13;;;4.82;;
72801;SDS011;61891;55.818;37.084;2022-08-04T06:19:26;5.22;;;4.43;;
72801;SDS011;61891;55.818;37.084;2022-08-04T06:21:54;6.30;;;4.13;;
72801;SDS011;61891;55.818;37.084;2022-08-04T06:24:23;6.05;;;4.03;;
72801;SDS011;61891;55.818;37.084;2022-08-04T06:26:53;5.05;;;4.20;;
72801;SDS011;61891;55.818;37.084;2022-08-04T06:29:20;5.43;;;4.07;;
72801;SDS011;61891;55.818;37.084;2022-08-04T06:32:02;5.03;;;4.53;;
72801;SDS011;61891;55.818;37.084;2022-08-04T06:34:55;5.88;;;3.83;;
72801;SDS011;61891;55.818;37.084;2022-08-04T06:37:24;7.15;;;4.20;;
72801;SDS011;61891;55.818;37.084;2022-08-04T06:39:51;8.00;;;4.30;;
72801;SDS011;61891;55.818;37.084;2022-08-04T06:42:19;6.00;;;4.55;;
72801;SDS011;61891;55.818;37.084;2022-08-04T06:44:48;8.10;;;4.22;;
72801;SDS011;61891;55.818;37.084;2022-08-04T06:47:16;4.63;;;4.22;;
72801;SDS011;61891;55.818;37.084;2022-08-04T06:49:46;4.85;;;4.35;;
72801;SDS011;61891;55.818;37.084;2022-08-04T06:52:14;5.43;;;4.93;;
72801;SDS011;61891;55.818;37.084;2022-08-04T06:54:51;7.35;;;4.60;;
72801;SDS011;61891;55.818;37.084;2022-08-04T06:57:18;5.55;;;4.78;;
72801;SDS011;61891;55.818;37.084;2022-08-04T06:59:48;6.28;;;4.82;;
72801;SDS011;61891;55.818;37.084;2022-08-04T07:02:23;7.13;;;4.93;;
72801;SDS011;61891;55.818;37.084;2022-08-04T07:04:51;13.52;;;9.55;;
72801;SDS011;61891;55.818;37.084;2022-08-04T07:07:17;6.32;;;5.10;;
72801;SDS011;61891;55.818;37.084;2022-08-04T07:09:43;5.30;;;4.80;;
72801;SDS011;61891;55.818;37.084;2022-08-04T07:12:09;8.68;;;5.00;;
72801;SDS011;61891;55.818;37.084;2022-08-04T07:14:37;6.18;;;4.93;;
72801;SDS011;61891;55.818;37.084;2022-08-04T07:17:04;6.30;;;5.65;;
72801;SDS011;61891;55.818;37.084;2022-08-04T07:19:32;5.75;;;5.25;;
72801;SDS011;61891;55.818;37.084;2022-08-04T07:22:00;8.27;;;5.10;;
72801;SDS011;61891;55.818;37.084;2022-08-04T07:24:33;6.32;;;5.03;;
72801;SDS011;61891;55.818;37.084;2022-08-04T07:27:00;6.32;;;4.90;;
72801;SDS011;61891;55.818;37.084;2022-08-04T07:29:27;4.90;;;4.40;;
72801;SDS011;61891;55.818;37.084;2022-08-04T07:31:54;5.55;;;4.68;;
72801;SDS011;61891;55.818;37.084;2022-08-04T07:34:21;6.40;;;5.07;;
72801;SDS011;61891;55.818;37.084;2022-08-04T07:36:49;4.13;;;3.72;;
72801;SDS011;61891;55.818;37.084;2022-08-04T07:39:17;6.90;;;4.10;;
72801;SDS011;61891;55.818;37.084;2022-08-04T07:41:43;6.13;;;4.50;;
72801;SDS011;61891;55.818;37.084;2022-08-04T07:44:10;4.20;;;3.80;;
72801;SDS011;61891;55.818;37.084;2022-08-04T07:46:39;5.30;;;4.47;;
72801;SDS011;61891;55.818;37.084;2022-08-04T07:49:05;5.88;;;4.03;;
72801;SDS011;61891;55.818;37.084;2022-08-04T07:51:32;4.68;;;4.13;;
72801;SDS011;61891;55.818;37.084;2022-08-04T07:53:59;5.93;;;4.18;;
72801;SDS011;61891;55.818;37.084;2022-08-04T07:56:32;5.32;;;3.80;;
72801;SDS011;61891;55.818;37.084;2022-08-04T07:59:00;6.70;;;3.90;;
72801;SDS011;61891;55.818;37.084;2022-08-04T08:01:26;5.05;;;4.25;;
72801;SDS011;61891;55.818;37.084;2022-08-04T08:03:53;4.35;;;4.03;;
72801;SDS011;61891;55.818;37.084;2022-08-04T08:06:21;5.10;;;4.28;;
72801;SDS011;61891;55.818;37.084;2022-08-04T08:08:47;4.70;;;4.13;;
72801;SDS011;61891;55.818;37.084;2022-08-04T08:11:13;6.50;;;4.72;;
72801;SDS011;61891;55.818;37.084;2022-08-04T08:13:40;5.93;;;4.55;;
72801;SDS011;61891;55.818;37.084;2022-08-04T08:16:07;7.03;;;4.32;;
72801;SDS011;61891;55.818;37.084;2022-08-04T08:18:33;5.47;;;4.55;;
72801;SDS011;61891;55.818;37.084;2022-08-04T08:20:59;7.45;;;4.85;;
72801;SDS011;61891;55.818;37.084;2022-08-04T08:23:25;5.30;;;4.82;;
72801;SDS011;61891;55.818;37.084;2022-08-04T08:25:53;4.93;;;4.50;;
72801;SDS011;61891;55.818;37.084;2022-08-04T08:28:19;5.18;;;4.78;;
72801;SDS011;61891;55.818;37.084;2022-08-04T08:30:45;5.35;;;4.85;;
72801;SDS011;61891;55.818;37.084;2022-08-04T08:33:11;5.63;;;5.20;;
72801;SDS011;61891;55.818;37.084;2022-08-04T08:46:33;5.05;;;4.57;;
72801;SDS011;61891;55.818;37.084;2022-08-04T08:49:29;5.45;;;4.72;;
72801;SDS011;61891;55.818;37.084;2022-08-04T08:55:35;5.20;;;4.70;;
72801;SDS011;61891;55.818;37.084;2022-08-04T09:09:46;5.22;;;4.82;;
72801;SDS011;61891;55.818;37.084;2022-08-04T09:12:27;5.63;;;4.53;;
72801;SDS011;61891;55.818;37.084;2022-08-04T09:17:32;8.70;;;4.75;;
72801;SDS011;61891;55.818;37.084;2022-08-04T09:20:06;6.55;;;4.75;;
72801;SDS011;61891;55.818;37.084;2022-08-04T09:25:33;5.40;;;4.93;;
72801;SDS011;61891;55.818;37.084;2022-08-04T09:28:11;7.55;;;4.93;;
72801;SDS011;61891;55.818;37.084;2022-08-04T09:30:45;5.95;;;4.85;;
72801;SDS011;61891;55.818;37.084;2022-08-04T09:33:17;5.28;;;4.70;;
72801;SDS011;61891;55.818;37.084;2022-08-04T09:46:48;5.43;;;4.80;;
72801;SDS011;61891;55.818;37.084;2022-08-04T09:49:24;5.50;;;4.95;;
72801;SDS011;61891;55.818;37.084;2022-08-04T09:51:58;5.78;;;5.25;;
72801;SDS011;61891;55.818;37.084;2022-08-04T09:59:42;5.57;;;5.07;;
72801;SDS011;61891;55.818;37.084;2022-08-04T10:02:17;7.00;;;5.57;;
72801;SDS011;61891;55.818;37.084;2022-08-04T10:04:46;5.35;;;4.85;;
72801;SDS011;61891;55.818;37.084;2022-08-04T10:07:23;7.07;;;5.20;;
72801;SDS011;61891;55.818;37.084;2022-08-04T10:24:14;7.50;;;5.30;;
72801;SDS011;61891;55.818;37.084;2022-08-04T10:29:44;6.50;;;5.10;;
72801;SDS011;61891;55.818;37.084;2022-08-04T10:32:19;5.80;;;5.13;;
72801;SDS011;61891;55.818;37.084;2022-08-04T10:40:32;5.80;;;5.10;;
72801;SDS011;61891;55.818;37.084;2022-08-04T10:46:02;6.18;;;5.18;;
72801;SDS011;61891;55.818;37.084;2022-08-04T10:48:41;6.95;;;5.63;;
72801;SDS011;61891;55.818;37.084;2022-08-04T10:51:23;6.20;;;5.60;;
72801;SDS011;61891;55.818;37.084;2022-08-04T10:53:59;6.85;;;5.20;;
72801;SDS011;61891;55.818;37.084;2022-08-04T10:56:48;6.07;;;5.35;;
72801;SDS011;61891;55.818;37.084;2022-08-04T10:59:25;6.35;;;5.00;;
72801;SDS011;61891;55.818;37.084;2022-08-04T11:02:10;6.60;;;5.40;;
72801;SDS011;61891;55.818;37.084;2022-08-04T11:04:46;5.60;;;4.93;;
72801;SDS011;61891;55.818;37.084;2022-08-04T11:07:17;5.78;;;5.28;;
72801;SDS011;61891;55.818;37.084;2022-08-04T11:09:44;6.40;;;5.03;;
72801;SDS011;61891;55.818;37.084;2022-08-04T11:12:23;5.80;;;5.32;;
72801;SDS011;61891;55.818;37.084;2022-08-04T11:17:45;5.97;;;5.47;;
72801;SDS011;61891;55.818;37.084;2022-08-04T11:22:51;6.63;;;5.45;;
72801;SDS011;61891;55.818;37.084;2022-08-04T11:25:26;7.70;;;5.80;;
72801;SDS011;61891;55.818;37.084;2022-08-04T11:30:56;6.90;;;6.30;;
72801;SDS011;61891;55.818;37.084;2022-08-04T11:33:40;7.13;;;5.53;;
72801;SDS011;61891;55.818;37.084;2022-08-04T11:41:51;7.15;;;5.60;;
72801;SDS011;61891;55.818;37.084;2022-08-04T11:47:28;7.00;;;5.53;;
72801;SDS011;61891;55.818;37.084;2022-08-04T11:49:57;8.27;;;5.88;;
72801;SDS011;61891;55.818;37.084;2022-08-04T11:52:29;6.57;;;5.30;;
72801;SDS011;61891;55.818;37.084;2022-08-04T11:54:58;6.50;;;5.70;;
72801;SDS011;61891;55.818;37.084;2022-08-04T11:57:29;6.32;;;5.78;;
72801;SDS011;61891;55.818;37.084;2022-08-04T11:59:55;7.00;;;6.35;;
72801;SDS011;61891;55.818;37.084;2022-08-04T12:06:08;7.15;;;5.55;;
72801;SDS011;61891;55.818;37.084;2022-08-04T12:17:20;7.03;;;6.43;;
72801;SDS011;61891;55.818;37.084;2022-08-04T12:19:50;7.07;;;6.40;;
72801;SDS011;61891;55.818;37.084;2022-08-04T12:22:23;6.60;;;5.95;;
72801;SDS011;61891;55.818;37.084;2022-08-04T12:24:53;6.68;;;5.97;;
72801;SDS011;61891;55.818;37.084;2022-08-04T12:27:23;7.03;;;6.35;;
72801;SDS011;61891;55.818;37.084;2022-08-04T12:29:52;6.72;;;6.13;;
72801;SDS011;61891;55.818;37.084;2022-08-04T12:32:31;8.60;;;6.32;;
72801;SDS011;61891;55.818;37.084;2022-08-04T12:35:08;8.73;;;6.70;;
72801;SDS011;61891;55.818;37.084;2022-08-04T12:40:27;6.78;;;6.10;;
72801;SDS011;61891;55.818;37.084;2022-08-04T12:45:29;6.80;;;6.15;;
72801;SDS011;61891;55.818;37.084;2022-08-04T12:47:58;7.82;;;6.40;;
72801;SDS011;61891;55.818;37.084;2022-08-04T12:50:26;7.70;;;6.05;;
72801;SDS011;61891;55.818;37.084;2022-08-04T12:52:53;7.22;;;6.60;;
72801;SDS011;61891;55.818;37.084;2022-08-04T12:55:21;6.68;;;6.07;;
72801;SDS011;61891;55.818;37.084;2022-08-04T12:57:50;7.53;;;6.60;;
72801;SDS011;61891;55.818;37.084;2022-08-04T13:00:24;8.05;;;7.25;;
72801;SDS011;61891;55.818;37.084;2022-08-04T13:03:03;7.53;;;6.22;;
72801;SDS011;61891;55.818;37.084;2022-08-04T13:05:31;7.75;;;7.05;;
72801;SDS011;61891;55.818;37.084;2022-08-04T13:07:58;7.90;;;7.20;;
72801;SDS011;61891;55.818;37.084;2022-08-04T13:10:26;7.70;;;6.82;;
72801;SDS011;61891;55.818;37.084;2022-08-04T13:12:55;8.50;;;6.53;;
72801;SDS011;61891;55.818;37.084;2022-08-04T13:15:22;7.40;;;6.65;;
72801;SDS011;61891;55.818;37.084;2022-08-04T13:17:51;7.60;;;6.95;;
72801;SDS011;61891;55.818;37.084;2022-08-04T13:20:34;8.38;;;7.22;;
72801;SDS011;61891;55.818;37.084;2022-08-04T13:27:59;9.45;;;7.15;;
72801;SDS011;61891;55.818;37.084;2022-08-04T13:30:26;8.20;;;7.00;;
72801;SDS011;61891;55.818;37.084;2022-08-04T13:32:56;7.95;;;7.00;;
72801;SDS011;61891;55.818;37.084;2022-08-04T13:35:25;8.73;;;7.13;;
72801;SDS011;61891;55.818;37.084;2022-08-04T13:37:52;8.90;;;7.45;;
72801;SDS011;61891;55.818;37.084;2022-08-04T13:40:20;8.55;;;7.25;;
72801;SDS011;61891;55.818;37.084;2022-08-04T13:42:47;7.95;;;7.25;;
72801;SDS011;61891;55.818;37.084;2022-08-04T13:45:20;9.82;;;7.60;;
72801;SDS011;61891;55.818;37.084;2022-08-04T13:47:47;12.10;;;7.47;;
72801;SDS011;61891;55.818;37.084;2022-08-04T13:50:20;8.55;;;7.32;;
72801;SDS011;61891;55.818;37.084;2022-08-04T13:52:50;9.98;;;7.57;;
72801;SDS011;61891;55.818;37.084;2022-08-04T13:55:18;10.30;;;7.70;;
72801;SDS011;61891;55.818;37.084;2022-08-04T13:57:48;9.82;;;7.57;;
72801;SDS011;61891;55.818;37.084;2022-08-04T14:00:17;7.95;;;7.32;;
72801;SDS011;61891;55.818;37.084;2022-08-04T14:05:27;8.60;;;7.45;;
72801;SDS011;61891;55.818;37.084;2022-08-04T14:08:17;13.35;;;7.22;;
72801;SDS011;61891;55.818;37.084;2022-08-04T14:10:51;8.90;;;7.35;;
72801;SDS011;61891;55.818;37.084;2022-08-04T14:13:30;8.88;;;7.97;;
72801;SDS011;61891;55.818;37.084;2022-08-04T14:15:57;13.18;;;8.18;;
72801;SDS011;61891;55.818;37.084;2022-08-04T14:18:24;9.18;;;7.80;;
72801;SDS011;61891;55.818;37.084;2022-08-04T14:23:39;9.57;;;8.45;;
72801;SDS011;61891;55.818;37.084;2022-08-04T14:28:49;9.65;;;8.55;;
72801;SDS011;61891;55.818;37.084;2022-08-04T14:31:20;9.52;;;8.00;;
72801;SDS011;61891;55.818;37.084;2022-08-04T14:33:48;9.13;;;8.23;;
72801;SDS011;61891;55.818;37.084;2022-08-04T14:36:16;10.18;;;8.00;;
72801;SDS011;61891;55.818;37.084;2022-08-04T14:41:12;9.75;;;8.75;;
72801;SDS011;61891;55.818;37.084;2022-08-04T14:43:42;9.52;;;7.97;;
72801;SDS011;61891;55.818;37.084;2022-08-04T14:46:13;11.48;;;8.77;;
72801;SDS011;61891;55.818;37.084;2022-08-04T14:48:39;9.93;;;8.45;;
72801;SDS011;61891;55.818;37.084;2022-08-04T14:51:25;9.25;;;7.97;;
72801;SDS011;61891;55.818;37.084;2022-08-04T14:53:52;13.00;;;8.27;;
72801;SDS011;61891;55.818;37.084;2022-08-04T14:56:18;10.63;;;7.97;;
72801;SDS011;61891;55.818;37.084;2022-08-04T14:58:44;11.30;;;9.27;;
72801;SDS011;61891;55.818;37.084;2022-08-04T15:01:22;11.57;;;10.38;;
72801;SDS011;61891;55.818;37.084;2022-08-04T15:03:48;12.02;;;8.93;;
72801;SDS011;61891;55.818;37.084;2022-08-04T15:06:13;9.10;;;8.13;;
72801;SDS011;61891;55.818;37.084;2022-08-04T15:08:39;9.75;;;8.35;;
72801;SDS011;61891;55.818;37.084;2022-08-04T15:11:05;11.30;;;8.45;;
72801;SDS011;61891;55.818;37.084;2022-08-04T15:13:31;9.30;;;8.30;;
72801;SDS011;61891;55.818;37.084;2022-08-04T15:15:56;10.98;;;9.48;;
72801;SDS011;61891;55.818;37.084;2022-08-04T15:18:23;11.85;;;9.38;;
72801;SDS011;61891;55.818;37.084;2022-08-04T15:20:54;11.55;;;8.60;;
72801;SDS011;61891;55.818;37.084;2022-08-04T15:23:22;12.43;;;9.18;;
72801;SDS011;61891;55.818;37.084;2022-08-04T15:25:50;10.95;;;9.00;;
72801;SDS011;61891;55.818;37.084;2022-08-04T15:28:19;9.95;;;8.95;;
72801;SDS011;61891;55.818;37.084;2022-08-04T15:30:47;9.60;;;7.97;;
72801;SDS011;61891;55.818;37.084;2022-08-04T15:33:15;10.65;;;8.23;;
72801;SDS011;61891;55.818;37.084;2022-08-04T15:35:48;10.88;;;8.68;;
72801;SDS011;61891;55.818;37.084;2022-08-04T15:38:31;10.15;;;8.35;;
72801;SDS011;61891;55.818;37.084;2022-08-04T15:41:04;9.30;;;8.32;;
72801;SDS011;61891;55.818;37.084;2022-08-04T15:46:10;11.88;;;8.88;;
72801;SDS011;61891;55.818;37.084;2022-08-04T15:48:36;10.02;;;8.85;;
72801;SDS011;61891;55.818;37.084;2022-08-04T15:51:04;11.80;;;9.18;;
72801;SDS011;61891;55.818;37.084;2022-08-04T15:58:49;10.63;;;8.98;;
72801;SDS011;61891;55.818;37.084;2022-08-04T16:01:16;11.18;;;9.57;;
72801;SDS011;61891;55.818;37.084;2022-08-04T16:03:44;10.32;;;9.15;;
72801;SDS011;61891;55.818;37.084;2022-08-04T16:08:59;13.13;;;9.07;;
72801;SDS011;61891;55.818;37.084;2022-08-04T16:14:09;9.85;;;8.68;;
72801;SDS011;61891;55.818;37.084;2022-08-04T16:22:04;13.32;;;9.20;;
72801;SDS011;61891;55.818;37.084;2022-08-04T16:27:02;14.00;;;10.98;;
72801;SDS011;61891;55.818;37.084;2022-08-04T16:29:39;14.23;;;10.52;;
72801;SDS011;61891;55.818;37.084;2022-08-04T16:32:13;11.95;;;9.68;;
72801;SDS011;61891;55.818;37.084;2022-08-04T16:34:48;11.75;;;8.70;;
72801;SDS011;61891;55.818;37.084;2022-08-04T16:37:18;11.40;;;8.93;;
72801;SDS011;61891;55.818;37.084;2022-08-04T16:39:44;12.43;;;10.05;;
72801;SDS011;61891;55.818;37.084;2022-08-04T16:42:32;13.15;;;9.00;;
72801;SDS011;61891;55.818;37.084;2022-08-04T16:55:11;13.38;;;10.07;;
72801;SDS011;61891;55.818;37.084;2022-08-04T16:57:39;17.45;;;10.00;;
72801;SDS011;61891;55.818;37.084;2022-08-04T17:00:05;17.27;;;10.73;;
72801;SDS011;61891;55.818;37.084;2022-08-04T17:02:33;19.73;;;11.23;;
72801;SDS011;61891;55.818;37.084;2022-08-04T17:04:58;17.23;;;11.07;;
72801;SDS011;61891;55.818;37.084;2022-08-04T17:07:24;18.80;;;11.18;;
72801;SDS011;61891;55.818;37.084;2022-08-04T17:09:50;19.88;;;11.65;;
72801;SDS011;61891;55.818;37.084;2022-08-04T17:12:16;16.17;;;11.23;;
72801;SDS011;61891;55.818;37.084;2022-08-04T17:14:42;14.63;;;11.18;;
72801;SDS011;61891;55.818;37.084;2022-08-04T17:17:08;20.25;;;11.63;;
72801;SDS011;61891;55.818;37.084;2022-08-04T17:19:35;18.33;;;11.88;;
72801;SDS011;61891;55.818;37.084;2022-08-04T17:22:02;18.35;;;12.35;;
72801;SDS011;61891;55.818;37.084;2022-08-04T17:24:32;20.45;;;12.35;;
72801;SDS011;61891;55.818;37.084;2022-08-04T17:27:02;20.38;;;13.35;;
72801;SDS011;61891;55.818;37.084;2022-08-04T17:29:29;21.75;;;15.00;;
72801;SDS011;61891;55.818;37.084;2022-08-04T17:31:55;21.05;;;14.40;;
72801;SDS011;61891;55.818;37.084;2022-08-04T17:34:21;27.50;;;16.67;;
72801;SDS011;61891;55.818;37.084;2022-08-04T17:36:49;28.02;;;16.83;;
72801;SDS011;61891;55.818;37.084;2022-08-04T17:39:15;26.00;;;15.75;;
72801;SDS011;61891;55.818;37.084;2022-08-04T17:41:45;27.05;;;18.05;;
72801;SDS011;61891;55.818;37.084;2022-08-04T17:44:11;28.27;;;17.67;;
72801;SDS011;61891;55.818;37.084;2022-08-04T17:46:44;27.50;;;16.35;;
72801;SDS011;61891;55.818;37.084;2022-08-04T17:51:45;27.50;;;19.00;;
72801;SDS011;61891;55.818;37.084;2022-08-04T17:56:53;27.90;;;20.27;;
72801;SDS011;61891;55.818;37.084;2022-08-04T17:59:22;27.83;;;19.95;;
72801;SDS011;61891;55.818;37.084;2022-08-04T18:04:21;30.08;;;19.20;;
72801;SDS011;61891;55.818;37.084;2022-08-04T18:06:54;32.25;;;20.27;;
72801;SDS011;61891;55.818;37.084;2022-08-04T18:09:22;31.20;;;20.90;;
72801;SDS011;61891;55.818;37.084;2022-08-04T18:11:53;29.85;;;19.05;;
72801;SDS011;61891;55.818;37.084;2022-08-04T18:14:20;34.17;;;20.10;;
72801;SDS011;61891;55.818;37.084;2022-08-04T18:16:46;32.58;;;18.73;;
72801;SDS011;61891;55.818;37.084;2022-08-04T18:19:13;29.20;;;18.23;;
72801;SDS011;61891;55.818;37.084;2022-08-04T18:21:39;29.17;;;17.83;;
72801;SDS011;61891;55.818;37.084;2022-08-04T18:24:06;25.73;;;17.77;;
72801;SDS011;61891;55.818;37.084;2022-08-04T18:26:32;21.80;;;16.77;;
72801;SDS011;61891;55.818;37.084;2022-08-04T18:28:57;27.85;;;17.60;;
72801;SDS011;61891;55.818;37.084;2022-08-04T18:31:23;23.85;;;16.48;;
72801;SDS011;61891;55.818;37.084;2022-08-04T18:33:49;27.70;;;16.67;;
72801;SDS011;61891;55.818;37.084;2022-08-04T18:36:17;25.98;;;17.48;;
72801;SDS011;61891;55.818;37.084;2022-08-04T18:38:42;22.30;;;16.38;;
72801;SDS011;61891;55.818;37.084;2022-08-04T18:41:08;22.23;;;16.55;;
72801;SDS011;61891;55.818;37.084;2022-08-04T18:43:34;30.65;;;19.52;;
72801;SDS011;61891;55.818;37.084;2022-08-04T18:45:59;27.10;;;16.00;;
72801;SDS011;61891;55.818;37.084;2022-08-04T18:48:26;22.33;;;14.43;;
72801;SDS011;61891;55.818;37.084;2022-08-04T18:50:52;23.45;;;16.52;;
72801;SDS011;61891;55.818;37.084;2022-08-04T18:53:19;22.10;;;16.10;;
72801;SDS011;61891;55.818;37.084;2022-08-04T18:55:45;24.00;;;16.02;;
72801;SDS011;61891;55.818;37.084;2022-08-04T18:58:11;24.98;;;15.45;;
72801;SDS011;61891;55.818;37.084;2022-08-04T19:00:36;23.10;;;15.27;;
72801;SDS011;61891;55.818;37.084;2022-08-04T19:03:03;23.48;;;16.08;;
72801;SDS011;61891;55.818;37.084;2022-08-04T19:05:29;23.48;;;15.32;;
72801;SDS011;61891;55.818;37.084;2022-08-04T19:07:54;24.20;;;15.80;;
72801;SDS011;61891;55.818;37.084;2022-08-04T19:10:20;25.15;;;14.60;;
72801;SDS011;61891;55.818;37.084;2022-08-04T19:12:46;20.75;;;14.65;;
72801;SDS011;61891;55.818;37.084;2022-08-04T19:15:11;25.27;;;15.32;;
72801;SDS011;61891;55.818;37.084;2022-08-04T19:17:37;20.67;;;14.75;;
72801;SDS011;61891;55.818;37.084;2022-08-04T19:20:04;22.48;;;15.05;;
72801;SDS011;61891;55.818;37.084;2022-08-04T19:22:30;26.95;;;14.73;;
72801;SDS011;61891;55.818;37.084;2022-08-04T19:24:56;26.10;;;14.90;;
72801;SDS011;61891;55.818;37.084;2022-08-04T19:27:22;24.42;;;15.13;;
72801;SDS011;61891;55.818;37.084;2022-08-04T19:29:47;20.65;;;14.20;;
72801;SDS011;61891;55.818;37.084;2022-08-04T19:32:13;21.45;;;14.23;;
72801;SDS011;61891;55.818;37.084;2022-08-04T19:34:39;22.30;;;14.55;;
72801;SDS011;61891;55.818;37.084;2022-08-04T19:37:06;22.35;;;14.27;;
72801;SDS011;61891;55.818;37.084;2022-08-04T19:39:32;22.85;;;15.48;;
72801;SDS011;61891;55.818;37.084;2022-08-04T19:41:58;20.77;;;14.90;;
72801;SDS011;61891;55.818;37.084;2022-08-04T19:44:24;19.75;;;13.88;;
72801;SDS011;61891;55.818;37.084;2022-08-04T19:46:50;18.88;;;13.57;;
72801;SDS011;61891;55.818;37.084;2022-08-04T19:49:15;18.95;;;14.00;;
72801;SDS011;61891;55.818;37.084;2022-08-04T19:51:41;18.02;;;13.48;;
72801;SDS011;61891;55.818;37.084;2022-08-04T19:54:07;16.60;;;12.48;;